createdAt,value
2018-03-23T00:01:43.559Z,5.57
2018-03-23T00:04:12.134Z,4.83
2018-03-23T00:06:40.715Z,5.70
2018-03-23T00:09:09.337Z,6.43
2018-03-23T00:11:38.678Z,5.60
2018-03-23T00:14:07.294Z,6.30
2018-03-23T00:16:35.903Z,5.93
2018-03-23T00:19:04.525Z,5.53
2018-03-23T00:21:33.090Z,7.67
2018-03-23T00:24:02.482Z,5.97
2018-03-23T00:26:31.813Z,6.03
2018-03-23T00:29:00.377Z,6.57
2018-03-23T00:31:30.145Z,6.20
2018-03-23T00:33:58.709Z,8.73
2018-03-23T00:36:27.273Z,7.17
2018-03-23T00:38:56.194Z,6.80
2018-03-23T00:41:24.758Z,12.20
2018-03-23T00:43:53.338Z,6.83
2018-03-23T00:46:22.258Z,19.83
2018-03-23T00:48:50.838Z,55.53
2018-03-23T00:51:19.404Z,18.13
2018-03-23T00:53:48.207Z,6.27
2018-03-23T00:56:16.776Z,6.70
2018-03-23T00:58:45.338Z,6.20
2018-03-23T01:01:14.163Z,10.70
2018-03-23T01:03:42.730Z,7.70
2018-03-23T01:06:11.297Z,8.97
2018-03-23T01:08:39.919Z,6.97
2018-03-23T01:11:08.509Z,6.20
2018-03-23T01:13:37.082Z,5.77
2018-03-23T01:16:05.978Z,5.40
2018-03-23T01:18:34.552Z,4.80
2018-03-23T01:21:03.113Z,6.67
2018-03-23T01:23:31.757Z,5.37
2018-03-23T01:26:01.092Z,9.13
2018-03-23T01:28:29.657Z,11.40
2018-03-23T01:30:58.361Z,8.03
2018-03-23T01:33:26.924Z,8.53
2018-03-23T01:35:55.505Z,12.20
2018-03-23T01:38:24.318Z,12.13
2018-03-23T01:40:52.901Z,38.20
2018-03-23T01:43:21.504Z,28.73
2018-03-23T01:45:50.130Z,39.83
2018-03-23T01:48:18.727Z,20.50
2018-03-23T01:50:47.316Z,34.93
2018-03-23T01:53:33.626Z,8.07
2018-03-23T01:56:02.201Z,21.60
2018-03-23T01:58:30.806Z,37.73
2018-03-23T02:00:59.698Z,34.30
2018-03-23T02:03:28.281Z,14.60
2018-03-23T02:05:56.865Z,28.17
2018-03-23T02:08:25.484Z,52.33
2018-03-23T02:10:54.826Z,16.00
2018-03-23T02:13:23.392Z,5.70
2018-03-23T02:15:52.027Z,10.00
2018-03-23T02:18:20.601Z,5.23
2018-03-23T02:20:49.222Z,4.50
2018-03-23T02:23:18.610Z,7.30
2018-03-23T02:25:47.202Z,5.83
2018-03-23T02:28:16.541Z,5.73
2018-03-23T02:30:45.160Z,8.10
2018-03-23T02:33:13.742Z,4.37
2018-03-23T02:35:42.322Z,8.67
2018-03-23T02:38:10.935Z,13.10
2018-03-23T02:40:40.274Z,8.77
2018-03-23T02:43:08.842Z,5.67
2018-03-23T02:45:37.473Z,4.67
2018-03-23T02:48:06.054Z,3.30
2018-03-23T02:50:35.382Z,2.97
2018-03-23T02:53:03.992Z,4.80
2018-03-23T02:55:33.346Z,6.27
2018-03-23T02:58:02.675Z,5.23
2018-03-23T03:00:32.165Z,5.03
2018-03-23T03:03:00.774Z,7.43
2018-03-23T03:05:30.111Z,4.07
2018-03-23T03:07:58.736Z,3.13
2018-03-23T03:10:27.303Z,8.60
2018-03-23T03:12:55.865Z,6.87
2018-03-23T03:15:24.877Z,14.17
2018-03-23T03:17:53.440Z,10.77
2018-03-23T03:20:22.009Z,19.33
2018-03-23T03:22:50.630Z,16.17
2018-03-23T03:25:19.192Z,8.90
2018-03-23T03:27:47.753Z,6.53
2018-03-23T03:30:16.569Z,4.50
2018-03-23T03:32:45.169Z,5.30
2018-03-23T03:35:13.745Z,4.10
2018-03-23T03:37:42.361Z,13.87
2018-03-23T03:40:12.440Z,9.60
2018-03-23T03:42:41.018Z,29.30
2018-03-23T03:45:09.627Z,7.00
2018-03-23T03:47:38.206Z,52.00
2018-03-23T03:50:06.786Z,8.73
2018-03-23T03:52:35.498Z,9.43
2018-03-23T03:55:04.172Z,17.03
2018-03-23T03:57:32.743Z,22.27
2018-03-23T04:00:01.637Z,14.83
2018-03-23T04:02:30.217Z,16.53
2018-03-23T04:04:58.793Z,15.03
2018-03-23T04:07:27.507Z,8.17
2018-03-23T04:09:56.071Z,9.33
2018-03-23T04:12:24.641Z,14.63
2018-03-23T04:14:53.262Z,18.47
2018-03-23T04:17:22.593Z,7.20
2018-03-23T04:19:51.153Z,7.73
2018-03-23T04:22:20.537Z,7.90
2018-03-23T04:24:49.108Z,10.33
2018-03-23T04:27:17.689Z,74.37
2018-03-23T04:29:46.329Z,12.40
2018-03-23T04:32:14.896Z,10.60
2018-03-23T04:34:44.228Z,15.50
2018-03-23T04:37:13.147Z,18.47
2018-03-23T04:39:41.748Z,15.67
2018-03-23T04:42:11.085Z,16.87
2018-03-23T04:44:40.602Z,20.60
2018-03-23T04:47:09.165Z,13.47
2018-03-23T04:49:38.524Z,12.90
2018-03-23T04:52:07.510Z,13.97
2018-03-23T04:54:36.076Z,18.23
2018-03-23T04:57:04.673Z,31.00
2018-03-23T04:59:33.670Z,15.87
2018-03-23T05:02:02.261Z,18.50
2018-03-23T05:04:30.846Z,22.27
2018-03-23T05:06:59.625Z,20.93
2018-03-23T05:09:28.188Z,18.23
2018-03-23T05:11:56.762Z,17.70
2018-03-23T05:14:25.479Z,14.53
2018-03-23T05:16:54.041Z,14.47
2018-03-23T05:19:22.609Z,14.27
2018-03-23T05:21:51.381Z,14.57
2018-03-23T05:24:20.712Z,14.53
2018-03-23T05:26:49.281Z,18.87
2018-03-23T05:29:18.234Z,19.37
2018-03-23T05:31:46.813Z,21.23
2018-03-23T05:34:15.904Z,26.17
2018-03-23T05:36:44.718Z,20.00
2018-03-23T05:39:14.066Z,16.93
2018-03-23T05:41:42.629Z,16.30
2018-03-23T05:44:11.442Z,16.23
2018-03-23T05:46:40.023Z,12.47
2018-03-23T05:49:08.589Z,13.50
2018-03-23T05:51:37.208Z,20.17
2018-03-23T05:54:05.792Z,24.27
2018-03-23T05:56:34.369Z,59.10
2018-03-23T05:59:03.474Z,21.27
2018-03-23T06:01:32.878Z,27.77
2018-03-23T06:04:01.457Z,21.73
2018-03-23T06:06:30.243Z,19.03
2018-03-23T06:08:58.816Z,40.10
2018-03-23T06:11:27.385Z,22.87
2018-03-23T06:13:56.147Z,23.23
2018-03-23T06:16:25.514Z,23.23
2018-03-23T06:18:54.085Z,22.50
2018-03-23T06:21:23.481Z,47.77
2018-03-23T06:23:52.077Z,32.17
2018-03-23T06:26:20.649Z,43.23
2018-03-23T06:28:49.353Z,40.10
2018-03-23T06:31:17.922Z,47.40
2018-03-23T06:33:46.493Z,68.23
2018-03-23T06:36:15.128Z,97.80
2018-03-23T06:38:44.463Z,180.27
2018-03-23T06:41:13.073Z,125.30
2018-03-23T06:43:41.706Z,86.17
2018-03-23T06:46:11.077Z,154.53
2018-03-23T06:48:39.657Z,119.33
2018-03-23T06:51:08.273Z,96.57
2018-03-23T06:53:37.610Z,87.13
2018-03-23T06:56:06.231Z,119.70
2018-03-23T06:58:34.945Z,68.10
2018-03-23T07:01:04.304Z,69.13
2018-03-23T07:03:32.885Z,76.23
2018-03-23T07:06:02.265Z,66.43
2018-03-23T07:08:30.841Z,53.00
2018-03-23T07:10:59.417Z,48.13
2018-03-23T07:13:28.393Z,52.67
2018-03-23T07:15:56.969Z,38.43
2018-03-23T07:18:25.550Z,31.13
2018-03-23T07:20:54.173Z,39.07
2018-03-23T07:23:23.509Z,46.77
2018-03-23T07:25:52.086Z,32.23
2018-03-23T07:28:20.709Z,36.40
2018-03-23T07:30:49.276Z,35.87
2018-03-23T07:33:17.882Z,39.50
2018-03-23T07:35:46.505Z,37.33
2018-03-23T07:38:15.842Z,28.27
2018-03-23T07:40:44.411Z,21.97
2018-03-23T07:43:13.029Z,14.53
2018-03-23T07:45:41.600Z,16.30
2018-03-23T07:48:10.173Z,24.37
2018-03-23T07:50:38.801Z,26.47
2018-03-23T07:53:07.373Z,30.20
2018-03-23T07:55:35.946Z,27.80
2018-03-23T07:58:04.593Z,21.83
2018-03-23T08:00:33.170Z,23.33
2018-03-23T08:03:01.742Z,31.40
2018-03-23T08:05:31.260Z,17.67
2018-03-23T08:08:00.605Z,23.83
2018-03-23T08:10:29.183Z,22.90
2018-03-23T08:12:57.821Z,19.50
2018-03-23T08:15:27.156Z,19.83
2018-03-23T08:17:55.734Z,42.70
2018-03-23T08:20:24.447Z,34.40
2018-03-23T08:22:53.025Z,32.13
2018-03-23T08:25:21.596Z,35.13
2018-03-23T08:27:50.213Z,26.23
2018-03-23T08:30:18.833Z,36.70
2018-03-23T08:32:47.437Z,28.40
2018-03-23T08:35:16.209Z,37.57
2018-03-23T08:37:44.772Z,31.27
2018-03-23T08:40:14.110Z,44.40
2018-03-23T08:42:43.025Z,23.40
2018-03-23T08:45:11.625Z,36.17
2018-03-23T08:47:40.259Z,26.13
2018-03-23T08:50:08.968Z,16.57
2018-03-23T08:52:37.542Z,12.87
2018-03-23T08:55:06.142Z,14.07
2018-03-23T08:57:35.038Z,13.80
2018-03-23T09:00:03.662Z,28.60
2018-03-23T09:02:33.000Z,16.10
2018-03-23T09:05:01.789Z,20.00
2018-03-23T09:07:30.366Z,23.20
2018-03-23T09:09:58.937Z,28.73
2018-03-23T09:12:27.563Z,17.43
2018-03-23T09:14:56.125Z,16.00
2018-03-23T09:17:24.702Z,21.40
2018-03-23T09:19:53.326Z,16.47
2018-03-23T09:22:21.900Z,14.57
2018-03-23T09:24:50.476Z,11.23
2018-03-23T09:27:19.102Z,14.00
2018-03-23T09:29:48.437Z,15.10
2018-03-23T09:32:17.004Z,12.97
2018-03-23T09:34:45.756Z,13.77
2018-03-23T09:37:14.359Z,12.87
2018-03-23T09:39:43.731Z,12.03
2018-03-23T09:42:12.434Z,11.03
2018-03-23T09:44:41.001Z,16.50
2018-03-23T09:47:09.573Z,13.10
2018-03-23T09:49:38.360Z,10.73
2018-03-23T09:52:06.925Z,13.67
2018-03-23T09:54:35.493Z,15.53
2018-03-23T09:57:04.318Z,16.80
2018-03-23T09:59:32.902Z,15.77
2018-03-23T10:02:01.473Z,14.67
2018-03-23T10:04:30.103Z,14.57
2018-03-23T10:06:59.441Z,33.80
2018-03-23T10:09:28.009Z,29.70
2018-03-23T10:11:56.630Z,13.50
2018-03-23T10:14:25.219Z,17.70
2018-03-23T10:16:53.789Z,13.83
2018-03-23T10:19:22.729Z,16.97
2018-03-23T10:21:51.476Z,15.43
2018-03-23T10:24:20.172Z,14.43
2018-03-23T10:26:48.894Z,11.87
2018-03-23T10:29:17.572Z,17.03
2018-03-23T10:31:46.224Z,13.70
2018-03-23T10:34:14.925Z,12.90
2018-03-23T10:36:43.584Z,14.07
2018-03-23T10:39:12.357Z,12.30
2018-03-23T10:41:41.830Z,9.30
2018-03-23T10:44:10.513Z,15.00
2018-03-23T10:46:39.209Z,18.83
2018-03-23T10:49:07.882Z,19.87
2018-03-23T10:51:36.572Z,13.90
2018-03-23T10:54:05.313Z,10.57
2018-03-23T10:56:34.554Z,8.70
2018-03-23T10:59:03.338Z,8.33
2018-03-23T11:01:31.992Z,13.73
2018-03-23T11:04:00.858Z,10.53
2018-03-23T11:06:30.318Z,4.80
2018-03-23T11:08:58.969Z,13.00
2018-03-23T11:11:27.996Z,8.17
2018-03-23T11:13:56.584Z,4.87
2018-03-23T11:16:25.275Z,5.10
2018-03-23T11:18:54.242Z,4.90
2018-03-23T11:21:22.948Z,7.17
2018-03-23T11:23:51.634Z,8.67
2018-03-23T11:26:20.437Z,8.83
2018-03-23T11:28:49.104Z,10.83
2018-03-23T11:31:17.790Z,9.43
2018-03-23T11:33:46.585Z,9.63
2018-03-23T11:36:15.271Z,8.43
2018-03-23T11:38:44.011Z,7.07
2018-03-23T11:41:12.840Z,13.03
2018-03-23T11:43:41.528Z,8.73
2018-03-23T11:46:10.167Z,8.07
2018-03-23T11:48:39.004Z,5.23
2018-03-23T11:51:07.793Z,5.80
2018-03-23T11:53:36.580Z,7.80
2018-03-23T11:56:05.636Z,8.17
2018-03-23T11:58:34.364Z,6.70
2018-03-23T12:01:02.949Z,6.57
2018-03-23T12:03:31.739Z,6.50
2018-03-23T12:06:00.460Z,7.67
2018-03-23T12:08:29.879Z,7.20
2018-03-23T12:10:58.872Z,7.93
2018-03-23T12:13:27.566Z,6.97
2018-03-23T12:15:56.285Z,6.87
2018-03-23T12:18:25.081Z,6.37
2018-03-23T12:20:53.662Z,4.50
2018-03-23T12:23:22.342Z,4.27
2018-03-23T12:25:51.305Z,4.10
2018-03-23T12:28:20.022Z,5.73
2018-03-23T12:30:48.710Z,4.57
2018-03-23T12:33:17.700Z,4.33
2018-03-23T12:35:46.389Z,5.80
2018-03-23T12:38:14.979Z,5.77
2018-03-23T12:40:43.715Z,4.20
2018-03-23T12:43:12.443Z,3.20
2018-03-23T12:45:41.111Z,6.70
2018-03-23T12:48:09.823Z,4.23
2018-03-23T12:50:38.558Z,7.13
2018-03-23T12:53:08.029Z,3.40
2018-03-23T12:55:36.895Z,4.00
2018-03-23T12:58:05.611Z,5.20
2018-03-23T13:00:35.090Z,6.80
2018-03-23T13:03:03.777Z,5.23
2018-03-23T13:05:32.462Z,43.70
2018-03-23T13:08:02.109Z,3.93
2018-03-23T13:10:32.596Z,4.80
2018-03-23T13:13:01.283Z,3.27
2018-03-23T13:15:30.081Z,4.10
2018-03-23T13:17:58.757Z,2.97
2018-03-23T13:20:27.448Z,3.87
2018-03-23T13:22:56.848Z,8.17
2018-03-23T13:25:26.052Z,3.27
2018-03-23T13:27:54.834Z,4.63
2018-03-23T13:30:23.582Z,2.63
2018-03-23T13:32:52.309Z,3.67
2018-03-23T13:35:20.992Z,2.80
2018-03-23T13:37:49.577Z,3.10
2018-03-23T13:40:18.322Z,11.43
2018-03-23T13:42:47.048Z,3.93
2018-03-23T13:45:19.112Z,21.03
2018-03-23T13:47:48.009Z,3.97
2018-03-23T13:50:16.771Z,4.23
2018-03-23T13:52:45.437Z,20.10
2018-03-23T13:55:14.471Z,7.07
2018-03-23T13:57:43.265Z,2.73
2018-03-23T14:00:17.866Z,3.93
2018-03-23T14:02:46.533Z,35.20
2018-03-23T14:05:15.260Z,3.77
2018-03-23T14:07:44.296Z,2.60
2018-03-23T14:10:13.761Z,2.30
2018-03-23T14:12:42.546Z,2.97
2018-03-23T14:15:15.015Z,2.40
2018-03-23T14:17:43.683Z,2.23
2018-03-23T14:20:12.388Z,1.97
2018-03-23T14:22:41.184Z,5.50
2018-03-23T14:25:09.869Z,2.30
2018-03-23T14:27:38.567Z,2.20
2018-03-23T14:30:07.282Z,10.50
2018-03-23T14:32:36.739Z,6.17
2018-03-23T14:35:05.440Z,5.07
2018-03-23T14:37:34.208Z,12.30
2018-03-23T14:40:02.906Z,6.03
2018-03-23T14:42:31.606Z,2.73
2018-03-23T14:45:00.377Z,2.60
2018-03-23T14:47:29.065Z,2.70
2018-03-23T14:49:57.753Z,4.33
2018-03-23T14:52:26.671Z,6.77
2018-03-23T14:54:56.046Z,3.90
2018-03-23T14:57:24.730Z,3.17
2018-03-23T14:59:53.622Z,5.63
2018-03-23T15:02:22.307Z,5.73
2018-03-23T15:04:50.987Z,3.87
2018-03-23T15:07:19.986Z,7.63
2018-03-23T15:09:48.672Z,19.70
2018-03-23T15:12:17.358Z,7.40
2018-03-23T15:14:46.204Z,5.63
2018-03-23T15:17:14.929Z,16.83
2018-03-23T15:19:43.517Z,5.40
2018-03-23T15:22:12.716Z,4.30
2018-03-23T15:24:41.300Z,5.17
2018-03-23T15:27:10.045Z,4.67
2018-03-23T15:29:38.878Z,6.23
2018-03-23T15:32:07.562Z,11.70
2018-03-23T15:34:36.245Z,10.67
2018-03-23T15:37:04.942Z,18.57
2018-03-23T15:39:33.710Z,14.37
2018-03-23T15:42:02.404Z,16.70
2018-03-23T15:44:31.191Z,40.77
2018-03-23T15:46:59.981Z,22.50
2018-03-23T15:49:28.768Z,11.70
2018-03-23T15:51:57.967Z,14.03
2018-03-23T15:54:26.773Z,14.60
2018-03-23T15:56:55.457Z,15.57
2018-03-23T15:59:24.403Z,31.83
2018-03-23T16:01:53.129Z,25.57
2018-03-23T16:04:21.911Z,9.03
2018-03-23T16:06:50.656Z,14.27
2018-03-23T16:09:19.329Z,12.93
2018-03-23T16:11:48.780Z,19.97
2018-03-23T16:14:17.758Z,13.73
2018-03-23T16:16:46.460Z,11.80
2018-03-23T16:19:16.006Z,6.13
2018-03-23T16:21:44.697Z,5.17
2018-03-23T16:24:13.378Z,9.27
2018-03-23T16:26:41.977Z,11.53
2018-03-23T16:29:10.859Z,7.13
2018-03-23T16:31:39.546Z,6.03
2018-03-23T16:34:08.226Z,7.50
2018-03-23T16:36:36.923Z,9.63
2018-03-23T16:39:05.640Z,12.87
2018-03-23T16:41:35.206Z,25.47
2018-03-23T16:44:04.251Z,191.50
2018-03-23T16:46:33.701Z,214.23
2018-03-23T16:49:02.367Z,108.20
2018-03-23T16:51:31.134Z,63.17
2018-03-23T16:54:02.861Z,15.53
2018-03-23T16:56:48.339Z,11.37
2018-03-23T16:59:17.922Z,13.87
2018-03-23T17:01:46.706Z,5.80
2018-03-23T17:04:15.502Z,11.07
2018-03-23T17:06:44.187Z,13.77
2018-03-23T17:09:12.872Z,11.63
2018-03-23T17:11:41.658Z,10.70
2018-03-23T17:14:10.367Z,12.50
2018-03-23T17:16:39.128Z,15.47
2018-03-23T17:19:08.121Z,22.67
2018-03-23T17:21:36.715Z,23.37
2018-03-23T17:24:05.401Z,26.67
2018-03-23T17:26:34.080Z,23.97
2018-03-23T17:29:03.545Z,27.83
2018-03-23T17:31:32.135Z,22.63
2018-03-23T17:34:01.286Z,15.83
2018-03-23T17:36:29.978Z,15.63
2018-03-23T17:38:58.714Z,10.53
2018-03-23T17:41:27.664Z,11.57
2018-03-23T17:43:56.390Z,9.07
2018-03-23T17:46:25.078Z,7.60
2018-03-23T17:48:53.868Z,10.07
2018-03-23T17:51:22.605Z,11.37
2018-03-23T17:53:51.173Z,9.67
2018-03-23T17:56:20.891Z,9.87
2018-03-23T17:58:50.362Z,12.40
2018-03-23T18:01:21.823Z,11.30
2018-03-23T18:03:51.295Z,10.50
2018-03-23T18:06:19.948Z,11.20
2018-03-23T18:08:48.708Z,10.03
2018-03-23T18:11:18.175Z,11.40
2018-03-23T18:13:46.970Z,9.53
2018-03-23T18:16:15.755Z,10.83
2018-03-23T18:18:44.456Z,11.97
2018-03-23T18:21:13.197Z,11.80
2018-03-23T18:23:41.960Z,12.23
2018-03-23T18:26:12.454Z,9.23
2018-03-23T18:28:41.172Z,9.73
2018-03-23T18:31:10.942Z,13.50
2018-03-23T18:33:39.725Z,11.60
2018-03-23T18:36:08.425Z,12.67
2018-03-23T18:38:37.405Z,10.57
2018-03-23T18:41:06.096Z,10.97
2018-03-23T18:43:35.293Z,11.40
2018-03-23T18:46:04.076Z,12.43
2018-03-23T18:48:32.764Z,12.73
2018-03-23T18:51:01.448Z,13.33
2018-03-23T18:53:30.257Z,17.33
2018-03-23T18:55:58.946Z,11.77
2018-03-23T18:58:27.692Z,15.43
2018-03-23T19:00:56.820Z,16.80
2018-03-23T19:03:25.605Z,14.57
2018-03-23T19:05:54.299Z,14.37
2018-03-23T19:08:23.002Z,14.83
2018-03-23T19:10:52.344Z,12.03
2018-03-23T19:13:21.062Z,12.40
2018-03-23T19:15:50.174Z,10.90
2018-03-23T19:18:19.047Z,15.47
2018-03-23T19:20:47.699Z,11.87
2018-03-23T19:23:16.726Z,11.03
2018-03-23T19:25:45.417Z,11.33
2018-03-23T19:28:14.117Z,12.20
2018-03-23T19:30:43.168Z,9.93
2018-03-23T19:33:11.887Z,13.47
2018-03-23T19:35:40.671Z,12.87
2018-03-23T19:38:09.493Z,15.83
2018-03-23T19:40:38.175Z,12.83
2018-03-23T19:43:06.809Z,15.10
2018-03-23T19:45:36.549Z,13.73
2018-03-23T19:48:05.270Z,16.70
2018-03-23T19:50:34.014Z,14.40
2018-03-23T19:53:02.756Z,17.17
2018-03-23T19:55:31.487Z,14.33
2018-03-23T19:58:00.272Z,14.63
2018-03-23T20:00:29.269Z,12.30
2018-03-23T20:02:57.857Z,15.30
2018-03-23T20:05:26.544Z,14.67
2018-03-23T20:07:55.241Z,10.77
2018-03-23T20:10:24.731Z,12.40
2018-03-23T20:12:53.417Z,14.00
2018-03-23T20:15:22.368Z,17.07
2018-03-23T20:17:56.668Z,19.00
2018-03-23T20:20:31.864Z,17.33
2018-03-23T20:23:00.646Z,17.57
2018-03-23T20:25:29.335Z,12.77
2018-03-23T20:28:03.757Z,12.40
2018-03-23T20:30:32.449Z,13.97
2018-03-23T20:33:01.191Z,12.30
2018-03-23T20:35:30.220Z,12.40
2018-03-23T20:37:58.906Z,12.43
2018-03-23T20:40:27.502Z,12.97
2018-03-23T20:42:56.583Z,12.37
2018-03-23T20:45:25.270Z,11.40
2018-03-23T20:47:53.927Z,12.87
2018-03-23T20:50:22.645Z,11.83
2018-03-23T20:52:51.336Z,11.47
2018-03-23T20:55:20.024Z,11.97
2018-03-23T20:57:48.765Z,12.87
2018-03-23T21:00:17.494Z,10.57
2018-03-23T21:02:46.180Z,12.57
2018-03-23T21:05:15.021Z,11.17
2018-03-23T21:07:43.752Z,11.37
2018-03-23T21:10:12.341Z,10.80
2018-03-23T21:12:41.029Z,11.27
2018-03-23T21:15:09.718Z,8.20
2018-03-23T21:17:38.410Z,8.23
2018-03-23T21:20:07.128Z,9.47
2018-03-23T21:22:36.589Z,10.20
2018-03-23T21:25:05.275Z,7.13
2018-03-23T21:27:33.954Z,6.47
2018-03-23T21:30:02.645Z,6.53
2018-03-23T21:32:31.289Z,7.53
2018-03-23T21:35:00.060Z,6.63
2018-03-23T21:37:29.422Z,8.43
2018-03-23T21:39:57.990Z,8.33
2018-03-23T21:42:26.788Z,7.17
2018-03-23T21:44:55.532Z,7.50
2018-03-23T21:47:24.224Z,6.93
2018-03-23T21:49:52.950Z,7.63
2018-03-23T21:52:23.276Z,10.50
2018-03-23T21:54:51.958Z,10.47
2018-03-23T21:57:20.695Z,9.17
2018-03-23T21:59:50.146Z,12.10
2018-03-23T22:02:18.943Z,11.70
2018-03-23T22:04:47.623Z,13.63
2018-03-23T22:07:16.207Z,13.90
2018-03-23T22:09:44.859Z,15.33
2018-03-23T22:12:13.581Z,15.47
2018-03-23T22:14:42.260Z,13.63
2018-03-23T22:17:10.913Z,14.57
2018-03-23T22:19:39.677Z,16.10
2018-03-23T22:22:09.098Z,14.83
2018-03-23T22:24:37.828Z,15.53
2018-03-23T22:27:06.821Z,13.63
2018-03-23T22:29:35.605Z,13.30
2018-03-23T22:32:04.291Z,13.90
2018-03-23T22:34:32.981Z,13.57
2018-03-23T22:37:01.629Z,11.17
2018-03-23T22:39:30.349Z,14.23
2018-03-23T22:41:59.344Z,14.03
2018-03-23T22:44:28.027Z,12.33
2018-03-23T22:46:56.618Z,12.23
2018-03-23T22:49:25.401Z,15.00
2018-03-23T22:51:53.998Z,12.20
2018-03-23T22:54:22.679Z,15.67
2018-03-23T22:56:51.667Z,12.93
2018-03-23T22:59:20.449Z,11.53
2018-03-23T23:01:49.108Z,12.33
2018-03-23T23:04:17.825Z,10.17
2018-03-23T23:06:46.507Z,11.37
2018-03-23T23:09:15.193Z,11.30
2018-03-23T23:11:43.884Z,10.57
2018-03-23T23:14:12.565Z,9.73
2018-03-23T23:16:41.156Z,12.80
2018-03-23T23:19:09.939Z,13.60
2018-03-23T23:21:38.731Z,11.43
2018-03-23T23:24:07.417Z,12.07
2018-03-23T23:26:36.110Z,11.93
2018-03-23T23:29:04.828Z,12.73
2018-03-23T23:31:34.286Z,12.73
2018-03-23T23:34:02.978Z,14.20
2018-03-23T23:36:31.561Z,11.87
2018-03-23T23:39:00.253Z,11.97
2018-03-23T23:41:28.991Z,11.57
2018-03-23T23:43:57.716Z,12.43
2018-03-23T23:46:26.402Z,11.80
2018-03-23T23:48:55.013Z,8.23
2018-03-23T23:51:25.310Z,11.07
2018-03-23T23:53:53.995Z,11.63
2018-03-23T23:56:23.147Z,12.33
2018-03-23T23:58:51.709Z,9.37
